sensor_id;sensor_type;location;lat;lon;timestamp;pressure;altitude;pressure_sealevel;temperature;humidity
8360;BME280;4217;48.762;11.428;2022-11-15T00:03:50;97511.72;;;8.40;69.79
8360;BME280;4217;48.762;11.428;2022-11-15T00:14:10;97499.88;;;8.38;69.63
8360;BME280;4217;48.762;11.428;2022-11-15T00:24:30;97510.16;;;8.39;69.90
8360;BME280;4217;48.762;11.428;2022-11-15T00:34:50;97511.59;;;8.35;69.64
8360;BME280;4217;48.762;11.428;2022-11-15T00:45:11;97507.94;;;8.25;69.90
8360;BME280;4217;48.762;11.428;2022-11-15T00:55:30;97500.41;;;8.17;69.63
8360;BME280;4217;48.762;11.428;2022-11-15T01:05:51;97476.34;;;8.08;70.18
8360;BME280;4217;48.762;11.428;2022-11-15T01:16:16;97472.59;;;8.04;70.07
8360;BME280;4217;48.762;11.428;2022-11-15T01:26:37;97468.38;;;8.03;70.15
8360;BME280;4217;48.762;11.428;2022-11-15T01:36:57;97469.19;;;8.04;70.07
8360;BME280;4217;48.762;11.428;2022-11-15T01:47:28;97455.75;;;8.00;70.46
8360;BME280;4217;48.762;11.428;2022-11-15T01:57:51;97436.94;;;7.91;70.71
8360;BME280;4217;48.762;11.428;2022-11-15T02:08:13;97426.56;;;7.85;70.86
8360;BME280;4217;48.762;11.428;2022-11-15T02:39:52;97398.69;;;7.67;70.71
8360;BME280;4217;48.762;11.428;2022-11-15T02:50:19;97395.69;;;7.64;70.72
8360;BME280;4217;48.762;11.428;2022-11-15T03:01:03;97391.69;;;7.49;70.79
8360;BME280;4217;48.762;11.428;2022-11-15T03:11:25;97398.97;;;7.17;71.01
8360;BME280;4217;48.762;11.428;2022-11-15T03:21:46;97376.09;;;7.01;70.69
8360;BME280;4217;48.762;11.428;2022-11-15T03:32:15;97392.53;;;6.72;70.80
8360;BME280;4217;48.762;11.428;2022-11-15T03:42:43;97391.16;;;6.51;70.78
8360;BME280;4217;48.762;11.428;2022-11-15T03:53:06;97367.66;;;6.51;70.18
8360;BME280;4217;48.762;11.428;2022-11-15T04:03:26;97369.84;;;6.54;69.77
8360;BME280;4217;48.762;11.428;2022-11-15T04:13:47;97346.19;;;6.49;69.86
8360;BME280;4217;48.762;11.428;2022-11-15T04:24:07;97329.50;;;6.32;70.35
8360;BME280;4217;48.762;11.428;2022-11-15T04:34:27;97343.78;;;6.48;70.10
8360;BME280;4217;48.762;11.428;2022-11-15T04:44:46;97353.81;;;6.32;71.14
8360;BME280;4217;48.762;11.428;2022-11-15T04:55:07;97344.81;;;6.47;70.54
8360;BME280;4217;48.762;11.428;2022-11-15T05:05:27;97328.91;;;6.48;70.13
8360;BME280;4217;48.762;11.428;2022-11-15T05:15:47;97326.31;;;6.48;70.18
8360;BME280;4217;48.762;11.428;2022-11-15T05:26:09;97315.19;;;6.53;70.13
8360;BME280;4217;48.762;11.428;2022-11-15T05:36:37;97302.41;;;6.63;70.23
8360;BME280;4217;48.762;11.428;2022-11-15T05:46:58;97298.75;;;6.64;70.74
8360;BME280;4217;48.762;11.428;2022-11-15T05:57:18;97288.19;;;6.59;70.78
8360;BME280;4217;48.762;11.428;2022-11-15T06:07:38;97289.88;;;6.53;70.94
8360;BME280;4217;48.762;11.428;2022-11-15T06:17:58;97284.13;;;6.45;71.46
8360;BME280;4217;48.762;11.428;2022-11-15T06:28:19;97277.81;;;6.52;70.36
8360;BME280;4217;48.762;11.428;2022-11-15T06:38:39;97292.72;;;6.63;70.86
8360;BME280;4217;48.762;11.428;2022-11-15T06:48:59;97305.16;;;6.68;71.05
8360;BME280;4217;48.762;11.428;2022-11-15T06:59:27;97318.13;;;6.74;71.13
8360;BME280;4217;48.762;11.428;2022-11-15T07:09:47;97312.78;;;6.69;70.93
8360;BME280;4217;48.762;11.428;2022-11-15T07:20:08;97297.41;;;7.03;70.48
8360;BME280;4217;48.762;11.428;2022-11-15T07:30:28;97303.28;;;7.40;70.74
8360;BME280;4217;48.762;11.428;2022-11-15T07:40:56;97306.03;;;7.91;70.59
8360;BME280;4217;48.762;11.428;2022-11-15T07:51:17;97303.81;;;8.23;70.54
8360;BME280;4217;48.762;11.428;2022-11-15T08:01:37;97299.97;;;8.66;70.37
8360;BME280;4217;48.762;11.428;2022-11-15T08:11:57;97278.81;;;9.01;70.22
8360;BME280;4217;48.762;11.428;2022-11-15T08:22:17;97281.88;;;9.43;70.28
8360;BME280;4217;48.762;11.428;2022-11-15T08:32:37;97255.16;;;10.71;70.08
8360;BME280;4217;48.762;11.428;2022-11-15T08:42:57;97231.59;;;21.84;52.84
8360;BME280;4217;48.762;11.428;2022-11-15T08:53:18;97208.91;;;26.71;38.12
8360;BME280;4217;48.762;11.428;2022-11-15T09:03:39;97198.66;;;28.26;30.11
8360;BME280;4217;48.762;11.428;2022-11-15T09:14:00;97167.34;;;28.81;27.51
8360;BME280;4217;48.762;11.428;2022-11-15T09:24:20;97158.47;;;30.57;24.85
8360;BME280;4217;48.762;11.428;2022-11-15T09:34:40;97150.72;;;30.62;23.69
8360;BME280;4217;48.762;11.428;2022-11-15T09:45:06;97129.59;;;31.14;22.35
8360;BME280;4217;48.762;11.428;2022-11-15T09:55:40;97115.69;;;31.54;21.78
8360;BME280;4217;48.762;11.428;2022-11-15T10:05:47;97105.94;;;31.14;21.86
8360;BME280;4217;48.762;11.428;2022-11-15T10:15:50;97092.38;;;31.64;21.64
8360;BME280;4217;48.762;11.428;2022-11-15T10:25:55;97059.72;;;30.06;22.80
8360;BME280;4217;48.762;11.428;2022-11-15T10:46:20;97028.34;;;27.76;25.14
8360;BME280;4217;48.762;11.428;2022-11-15T10:56:42;97000.25;;;26.06;27.51
8360;BME280;4217;48.762;11.428;2022-11-15T11:06:50;96990.19;;;24.42;29.62
8360;BME280;4217;48.762;11.428;2022-11-15T11:17:05;96986.28;;;21.29;33.52
8360;BME280;4217;48.762;11.428;2022-11-15T12:18:44;96912.03;;;16.81;45.72
8360;BME280;4217;48.762;11.428;2022-11-15T12:29:12;96903.06;;;17.18;45.03
8360;BME280;4217;48.762;11.428;2022-11-15T12:39:17;96886.91;;;17.64;44.38
8360;BME280;4217;48.762;11.428;2022-11-15T13:00:00;96887.06;;;18.12;43.85
8360;BME280;4217;48.762;11.428;2022-11-15T13:30:24;96875.41;;;18.00;44.66
8360;BME280;4217;48.762;11.428;2022-11-15T13:40:29;96878.91;;;17.86;44.94
8360;BME280;4217;48.762;11.428;2022-11-15T13:50:36;96879.78;;;17.37;45.84
8360;BME280;4217;48.762;11.428;2022-11-15T14:00:41;96868.28;;;16.92;46.64
8360;BME280;4217;48.762;11.428;2022-11-15T14:10:44;96837.09;;;16.70;47.44
8360;BME280;4217;48.762;11.428;2022-11-15T14:20:46;96818.09;;;16.50;48.82
8360;BME280;4217;48.762;11.428;2022-11-15T14:30:48;96818.59;;;16.24;49.76
8360;BME280;4217;48.762;11.428;2022-11-15T14:40:51;96832.34;;;15.99;50.83
8360;BME280;4217;48.762;11.428;2022-11-15T14:50:54;96810.06;;;15.68;51.49
8360;BME280;4217;48.762;11.428;2022-11-15T15:00:57;96828.72;;;15.25;52.78
8360;BME280;4217;48.762;11.428;2022-11-15T15:10:59;96805.34;;;14.95;53.01
8360;BME280;4217;48.762;11.428;2022-11-15T15:21:01;96806.84;;;14.58;54.37
8360;BME280;4217;48.762;11.428;2022-11-15T15:31:09;96798.28;;;14.19;55.53
8360;BME280;4217;48.762;11.428;2022-11-15T15:41:12;96794.72;;;13.81;56.39
8360;BME280;4217;48.762;11.428;2022-11-15T15:51:13;96801.31;;;13.54;56.86
8360;BME280;4217;48.762;11.428;2022-11-15T16:01:21;96788.25;;;13.34;57.18
8360;BME280;4217;48.762;11.428;2022-11-15T16:11:23;96789.94;;;13.20;57.51
8360;BME280;4217;48.762;11.428;2022-11-15T16:21:24;96779.53;;;12.95;58.93
8360;BME280;4217;48.762;11.428;2022-11-15T16:31:26;96779.88;;;12.83;59.01
8360;BME280;4217;48.762;11.428;2022-11-15T16:41:28;96771.31;;;12.57;59.63
8360;BME280;4217;48.762;11.428;2022-11-15T16:51:29;96758.34;;;12.61;63.14
8360;BME280;4217;48.762;11.428;2022-11-15T17:01:36;96751.69;;;12.73;61.78
8360;BME280;4217;48.762;11.428;2022-11-15T17:11:47;96746.41;;;12.73;62.04
8360;BME280;4217;48.762;11.428;2022-11-15T17:21:49;96742.41;;;12.81;61.91
8360;BME280;4217;48.762;11.428;2022-11-15T17:31:51;96713.88;;;12.88;61.78
8360;BME280;4217;48.762;11.428;2022-11-15T17:41:52;96706.31;;;12.76;62.76
8360;BME280;4217;48.762;11.428;2022-11-15T17:51:53;96700.03;;;12.67;63.64
8360;BME280;4217;48.762;11.428;2022-11-15T18:01:55;96700.50;;;12.74;63.25
8360;BME280;4217;48.762;11.428;2022-11-15T18:11:57;96682.78;;;12.80;63.05
8360;BME280;4217;48.762;11.428;2022-11-15T18:21:58;96683.63;;;12.75;63.29
8360;BME280;4217;48.762;11.428;2022-11-15T18:32:02;96684.03;;;12.93;63.05
8360;BME280;4217;48.762;11.428;2022-11-15T18:42:06;96678.13;;;13.01;63.01
8360;BME280;4217;48.762;11.428;2022-11-15T18:52:08;96664.72;;;12.97;63.21
8360;BME280;4217;48.762;11.428;2022-11-15T19:02:10;96664.53;;;12.89;63.10
8360;BME280;4217;48.762;11.428;2022-11-15T19:12:13;96652.22;;;12.79;63.67
8360;BME280;4217;48.762;11.428;2022-11-15T19:22:15;96643.00;;;12.76;63.61
8360;BME280;4217;48.762;11.428;2022-11-15T19:32:16;96632.53;;;12.66;63.77
8360;BME280;4217;48.762;11.428;2022-11-15T19:42:18;96623.13;;;12.50;64.22
8360;BME280;4217;48.762;11.428;2022-11-15T19:52:19;96634.38;;;12.27;65.23
8360;BME280;4217;48.762;11.428;2022-11-15T20:02:22;96618.00;;;12.30;64.48
8360;BME280;4217;48.762;11.428;2022-11-15T20:12:24;96621.81;;;12.14;64.90
8360;BME280;4217;48.762;11.428;2022-11-15T20:22:26;96625.78;;;12.06;64.93
8360;BME280;4217;48.762;11.428;2022-11-15T20:32:27;96619.22;;;12.04;65.07
8360;BME280;4217;48.762;11.428;2022-11-15T20:42:31;96613.69;;;12.05;65.23
8360;BME280;4217;48.762;11.428;2022-11-15T20:52:32;96614.75;;;11.99;66.29
8360;BME280;4217;48.762;11.428;2022-11-15T21:02:34;96595.75;;;12.07;66.33
8360;BME280;4217;48.762;11.428;2022-11-15T21:12:36;96586.56;;;12.00;66.62
8360;BME280;4217;48.762;11.428;2022-11-15T21:22:37;96550.25;;;11.91;66.73
8360;BME280;4217;48.762;11.428;2022-11-15T21:32:39;96530.84;;;11.72;67.49
8360;BME280;4217;48.762;11.428;2022-11-15T21:42:40;96528.84;;;11.49;68.74
8360;BME280;4217;48.762;11.428;2022-11-15T21:52:42;96523.28;;;11.55;68.62
8360;BME280;4217;48.762;11.428;2022-11-15T22:02:43;96503.00;;;11.56;68.37
8360;BME280;4217;48.762;11.428;2022-11-15T22:12:45;96481.00;;;11.37;68.38
8360;BME280;4217;48.762;11.428;2022-11-15T22:22:46;96474.03;;;11.07;69.01
8360;BME280;4217;48.762;11.428;2022-11-15T22:32:48;96465.41;;;10.91;68.82
8360;BME280;4217;48.762;11.428;2022-11-15T22:42:49;96469.16;;;10.75;68.83
8360;BME280;4217;48.762;11.428;2022-11-15T22:52:53;96455.81;;;10.46;70.27
8360;BME280;4217;48.762;11.428;2022-11-15T23:02:55;96433.44;;;10.44;70.37
8360;BME280;4217;48.762;11.428;2022-11-15T23:13:03;96422.72;;;10.25;71.77
8360;BME280;4217;48.762;11.428;2022-11-15T23:23:17;96431.38;;;10.25;71.14
8360;BME280;4217;48.762;11.428;2022-11-15T23:33:19;96423.50;;;10.35;70.57
8360;BME280;4217;48.762;11.428;2022-11-15T23:43:39;96419.31;;;10.09;71.28
8360;BME280;4217;48.762;11.428;2022-11-15T23:53:41;96421.94;;;10.09;70.66
